^^
Saratoga-Weather Station Historical Data
Daily Summary for September 11, 2020 Units:  Both    English   Metric
Daily Weekly Monthly Yearly Custom
  High: Low: Average:
Temperature: 46 °F /  7.8 °C 38.3 °F /  3.5 °C 42.3 °F /  5.7 °C
Dew Point: 40.5 °F /  4.7 °C 32.4 °F /  0.2 °C 35.4 °F /  1.9 °C
Humidity: 91% 61% 77%
Wind Speed: 21mph /  33.8km/h - 7.9mph /  12.7km/h
Wind Gust: 27mph /  43.5km/h - -
Wind- - West
Pressure: 30 in /  1016.3 hPa 29.6 in /  1003.4 hPa -
Precipitation: 0.07 in /  1.8 mm    
Historical Graphs
 
 
Tabular Data for September 11, 2020
Time Temperature Dew Point Pressure Wind Wind Speed Wind Gust Humidity Rainfall Rate (Hourly) solar
00:02 44.4 °F /  6.9 °C 40.5 °F /  4.7 °C 29.6in /  1003.4hPa West 11mph /  17.7km/h 12mph /  19.3km/h 86% 0in /  0.0mm 0 W/m2
00:07 44.4 °F /  6.9 °C 40.3 °F /  4.6 °C 29.6in /  1003.7hPa WSW 6mph /  9.7km/h 12mph /  19.3km/h 85% 0in /  0.0mm 0 W/m2
00:12 44.4 °F /  6.9 °C 39.9 °F /  4.4 °C 29.6in /  1003.7hPa WNW 8.1mph /  13km/h 15mph /  24.1km/h 84% 0in /  0.0mm 0 W/m2
00:17 44.4 °F /  6.9 °C 39.9 °F /  4.4 °C 29.7in /  1004.1hPa West 6.9mph /  11.1km/h 11mph /  17.7km/h 84% 0in /  0.0mm 0 W/m2
00:22 44.4 °F /  6.9 °C 39.9 °F /  4.4 °C 29.7in /  1004.1hPa NW 6.9mph /  11.1km/h 11mph /  17.7km/h 84% 0in /  0.0mm 0 W/m2
00:27 44.4 °F /  6.9 °C 39.9 °F /  4.4 °C 29.7in /  1004.1hPa SW 8.9mph /  14.3km/h 12mph /  19.3km/h 84% 0in /  0.0mm 0 W/m2
00:32 44.2 °F /  6.8 °C 40.3 °F /  4.6 °C 29.7in /  1004.7hPa West 8.1mph /  13km/h 16mph /  25.7km/h 86% 0.01in /  0.2mm 0 W/m2
00:37 43.5 °F /  6.4 °C 39.9 °F /  4.4 °C 29.7in /  1004.7hPa West 16.1mph /  25.9km/h 23mph /  37km/h 87% 0.05in /  1.3mm 0 W/m2
00:42 42.4 °F /  5.8 °C 39.4 °F /  4.1 °C 29.7in /  1005.1hPa West 6mph /  9.7km/h 12mph /  19.3km/h 89% 0.06in /  1.5mm 0 W/m2
00:47 41.7 °F /  5.4 °C 39 °F /  3.9 °C 29.7in /  1005.4hPa West 8.9mph /  14.3km/h 18mph /  29km/h 90% 0.06in /  1.5mm 0 W/m2
00:52 41.5 °F /  5.3 °C 39.2 °F /  4 °C 29.7in /  1005.1hPa WNW 4.9mph /  7.9km/h 6mph /  9.7km/h 91% 0.06in /  1.5mm 0 W/m2
00:57 41.5 °F /  5.3 °C 39.2 °F /  4 °C 29.7in /  1005.4hPa West 13mph /  20.9km/h 18mph /  29km/h 91% 0.06in /  1.5mm 0 W/m2
01:02 41.5 °F /  5.3 °C 38.8 °F /  3.8 °C 29.7in /  1005.8hPa WSW 8.1mph /  13km/h 15mph /  24.1km/h 90% 0.07in /  1.8mm 0 W/m2
01:07 41.5 °F /  5.3 °C 38.8 °F /  3.8 °C 29.7in /  1005.4hPa WSW 11mph /  17.7km/h 14mph /  22.5km/h 90% 0.07in /  1.8mm 0 W/m2
01:12 41.5 °F /  5.3 °C 38.8 °F /  3.8 °C 29.7in /  1005.8hPa West 2.9mph /  4.7km/h 10mph /  16.1km/h 90% 0.07in /  1.8mm 0 W/m2
01:17 41.5 °F /  5.3 °C 38.8 °F /  3.8 °C 29.7in /  1005.8hPa WSW 4.9mph /  7.9km/h 10mph /  16.1km/h 90% 0.07in /  1.8mm 0 W/m2
01:22 41.4 °F /  5.2 °C 38.7 °F /  3.7 °C 29.7in /  1005.8hPa West 8.1mph /  13km/h 15mph /  24.1km/h 90% 0.07in /  1.8mm 0 W/m2
01:27 41.4 °F /  5.2 °C 38.7 °F /  3.7 °C 29.7in /  1005.8hPa WSW 6.9mph /  11.1km/h 7mph /  11.3km/h 90% 0.07in /  1.8mm 0 W/m2
01:32 41.2 °F /  5.1 °C 38.5 °F /  3.6 °C 29.7in /  1005.8hPa NW 8.1mph /  13km/h 13mph /  20.9km/h 90% 0.06in /  1.5mm 0 W/m2
01:37 41.2 °F /  5.1 °C 38.5 °F /  3.6 °C 29.7in /  1005.8hPa NW 8.1mph /  13km/h 8mph /  12.9km/h 90% 0.02in /  0.5mm 0 W/m2
01:42 41.2 °F /  5.1 °C 38.5 °F /  3.6 °C 29.7in /  1005.8hPa West 2mph /  3.2km/h 9mph /  14.5km/h 90% 0.01in /  0.2mm 0 W/m2
01:47 41.2 °F /  5.1 °C 38.5 °F /  3.6 °C 29.7in /  1005.8hPa WNW 6.9mph /  11.1km/h 8mph /  12.9km/h 90% 0.01in /  0.2mm 0 W/m2
01:52 41.2 °F /  5.1 °C 38.5 °F /  3.6 °C 29.7in /  1005.8hPa WNW 10.1mph /  16.3km/h 15mph /  24.1km/h 90% 0.01in /  0.2mm 0 W/m2
01:57 41.4 °F /  5.2 °C 38.3 °F /  3.5 °C 29.7in /  1005.8hPa WNW 17mph /  27.4km/h 17mph /  27.4km/h 89% 0.01in /  0.2mm 0 W/m2
02:02 41.5 °F /  5.3 °C 38.5 °F /  3.6 °C 29.7in /  1006.1hPa West 6mph /  9.7km/h 13mph /  20.9km/h 89% 0in /  0.0mm 0 W/m2
02:07 41.7 °F /  5.4 °C 38.1 °F /  3.4 °C 29.7in /  1006.1hPa West 8.1mph /  13km/h 17mph /  27.4km/h 87% 0in /  0.0mm 0 W/m2
02:12 41.9 °F /  5.5 °C 37.9 °F /  3.3 °C 29.7in /  1006.1hPa WNW 4.9mph /  7.9km/h 12mph /  19.3km/h 86% 0in /  0.0mm 0 W/m2
02:17 41.9 °F /  5.5 °C 37.8 °F /  3.2 °C 29.7in /  1006.4hPa WNW 13mph /  20.9km/h 17mph /  27.4km/h 85% 0in /  0.0mm 0 W/m2
02:22 42.1 °F /  5.6 °C 37.6 °F /  3.1 °C 29.7in /  1006.4hPa WSW 6.9mph /  11.1km/h 14mph /  22.5km/h 84% 0in /  0.0mm 0 W/m2
02:27 41.9 °F /  5.5 °C 37 °F /  2.8 °C 29.7in /  1006.4hPa West 12.1mph /  19.5km/h 19mph /  30.6km/h 83% 0in /  0.0mm 0 W/m2
02:32 41.9 °F /  5.5 °C 37 °F /  2.8 °C 29.7in /  1006.8hPa West 13mph /  20.9km/h 17mph /  27.4km/h 83% 0in /  0.0mm 0 W/m2
02:37 41.7 °F /  5.4 °C 36.9 °F /  2.7 °C 29.7in /  1006.8hPa West 8.1mph /  13km/h 8mph /  12.9km/h 83% 0in /  0.0mm 0 W/m2
02:42 41.5 °F /  5.3 °C 36.7 °F /  2.6 °C 29.7in /  1007.1hPa West 8.9mph /  14.3km/h 17mph /  27.4km/h 83% 0in /  0.0mm 0 W/m2
02:47 41.7 °F /  5.4 °C 36.7 °F /  2.6 °C 29.7in /  1007.1hPa West 8.1mph /  13km/h 12mph /  19.3km/h 82% 0in /  0.0mm 0 W/m2
02:52 41.5 °F /  5.3 °C 36.1 °F /  2.3 °C 29.7in /  1007.1hPa West 8.9mph /  14.3km/h 11mph /  17.7km/h 81% 0in /  0.0mm 0 W/m2
02:57 41.5 °F /  5.3 °C 36.1 °F /  2.3 °C 29.8in /  1007.5hPa West 6.9mph /  11.1km/h 14mph /  22.5km/h 81% 0in /  0.0mm 0 W/m2
03:02 41.5 °F /  5.3 °C 35.8 °F /  2.1 °C 29.8in /  1007.5hPa West 6.9mph /  11.1km/h 17mph /  27.4km/h 80% 0in /  0.0mm 0 W/m2
03:07 41.5 °F /  5.3 °C 35.8 °F /  2.1 °C 29.8in /  1007.5hPa NW 4mph /  6.4km/h 14mph /  22.5km/h 80% 0in /  0.0mm 0 W/m2
03:12 41.4 °F /  5.2 °C 35.4 °F /  1.9 °C 29.8in /  1007.5hPa WSW 6.9mph /  11.1km/h 19mph /  30.6km/h 79% 0in /  0.0mm 0 W/m2
03:17 41.4 °F /  5.2 °C 35.4 °F /  1.9 °C 29.7in /  1007.1hPa North 8.1mph /  13km/h 18mph /  29km/h 79% 0in /  0.0mm 0 W/m2
03:22 41.5 °F /  5.3 °C 35.2 °F /  1.8 °C 29.8in /  1007.5hPa West 8.9mph /  14.3km/h 15mph /  24.1km/h 78% 0in /  0.0mm 0 W/m2
03:27 41.4 °F /  5.2 °C 35.1 °F /  1.7 °C 29.8in /  1007.5hPa West 6.9mph /  11.1km/h 18mph /  29km/h 78% 0in /  0.0mm 0 W/m2
03:32 41.4 °F /  5.2 °C 35.1 °F /  1.7 °C 29.8in /  1007.5hPa WNW 4.9mph /  7.9km/h 10mph /  16.1km/h 78% 0in /  0.0mm 0 W/m2
03:37 41.4 °F /  5.2 °C 35.1 °F /  1.7 °C 29.8in /  1007.5hPa NW 4mph /  6.4km/h 17mph /  27.4km/h 78% 0in /  0.0mm 0 W/m2
03:42 41.5 °F /  5.3 °C 35.6 °F /  2 °C 29.8in /  1007.5hPa WNW 6.9mph /  11.1km/h 10mph /  16.1km/h 79% 0in /  0.0mm 0 W/m2
03:47 41.5 °F /  5.3 °C 35.6 °F /  2 °C 29.8in /  1007.5hPa WSW 4mph /  6.4km/h 13mph /  20.9km/h 79% 0in /  0.0mm 0 W/m2
03:52 41.5 °F /  5.3 °C 35.6 °F /  2 °C 29.8in /  1007.5hPa WNW 2mph /  3.2km/h 9mph /  14.5km/h 79% 0in /  0.0mm 0 W/m2
03:57 41.5 °F /  5.3 °C 35.6 °F /  2 °C 29.8in /  1007.5hPa NW 4.9mph /  7.9km/h 12mph /  19.3km/h 79% 0in /  0.0mm 0 W/m2
04:02 41.7 °F /  5.4 °C 35.8 °F /  2.1 °C 29.8in /  1007.5hPa WSW 4mph /  6.4km/h 10mph /  16.1km/h 79% 0in /  0.0mm 0 W/m2
04:08 41.9 °F /  5.5 °C 35.6 °F /  2 °C 29.8in /  1007.8hPa WNW 8.9mph /  14.3km/h 14mph /  22.5km/h 78% 0in /  0.0mm 0 W/m2
04:13 42.1 °F /  5.6 °C 35.8 °F /  2.1 °C 29.8in /  1007.5hPa WSW 8.9mph /  14.3km/h 9mph /  14.5km/h 78% 0in /  0.0mm 0 W/m2
04:18 42.3 °F /  5.7 °C 36 °F /  2.2 °C 29.8in /  1007.5hPa West 11mph /  17.7km/h 11mph /  17.7km/h 78% 0in /  0.0mm 0 W/m2
04:23 42.4 °F /  5.8 °C 35.8 °F /  2.1 °C 29.8in /  1007.8hPa SW 12.1mph /  19.5km/h 22mph /  35.4km/h 77% 0in /  0.0mm 0 W/m2
04:28 42.4 °F /  5.8 °C 35.1 °F /  1.7 °C 29.8in /  1007.8hPa WNW 8.9mph /  14.3km/h 19mph /  30.6km/h 75% 0in /  0.0mm 0 W/m2
04:33 42.3 °F /  5.7 °C 33.8 °F /  1 °C 29.8in /  1008.1hPa WNW 17.9mph /  28.8km/h 27mph /  43.5km/h 72% 0in /  0.0mm 0 W/m2
04:38 42.1 °F /  5.6 °C 33.4 °F /  0.8 °C 29.8in /  1008.1hPa WSW 4.9mph /  7.9km/h 19mph /  30.6km/h 71% 0in /  0.0mm 0 W/m2
04:43 41.5 °F /  5.3 °C 33.8 °F /  1 °C 29.8in /  1008.5hPa WNW 10.1mph /  16.3km/h 27mph /  43.5km/h 74% 0in /  0.0mm 0 W/m2
04:48 41.4 °F /  5.2 °C 35.1 °F /  1.7 °C 29.8in /  1008.1hPa NW 6mph /  9.7km/h 13mph /  20.9km/h 78% 0in /  0.0mm 0 W/m2
04:53 40.8 °F /  4.9 °C 35.1 °F /  1.7 °C 29.8in /  1008.1hPa WNW 8.1mph /  13km/h 20mph /  32.2km/h 80% 0in /  0.0mm 0 W/m2
04:58 40.5 °F /  4.7 °C 35.4 °F /  1.9 °C 29.8in /  1008.5hPa West 6mph /  9.7km/h 8mph /  12.9km/h 82% 0in /  0.0mm 0 W/m2
05:03 40.1 °F /  4.5 °C 35.6 °F /  2 °C 29.8in /  1008.5hPa NW 2.9mph /  4.7km/h 11mph /  17.7km/h 84% 0in /  0.0mm 0 W/m2
05:08 39.9 °F /  4.4 °C 35.4 °F /  1.9 °C 29.8in /  1008.5hPa WNW 2.9mph /  4.7km/h 8mph /  12.9km/h 84% 0in /  0.0mm 0 W/m2
05:13 39.7 °F /  4.3 °C 35.6 °F /  2 °C 29.8in /  1008.5hPa West 2.9mph /  4.7km/h 10mph /  16.1km/h 85% 0in /  0.0mm 0 W/m2
05:18 39.7 °F /  4.3 °C 35.6 °F /  2 °C 29.8in /  1008.5hPa West 2.9mph /  4.7km/h 10mph /  16.1km/h 85% 0in /  0.0mm 0 W/m2
05:23 39.7 °F /  4.3 °C 35.2 °F /  1.8 °C 29.8in /  1008.8hPa West 2.9mph /  4.7km/h 11mph /  17.7km/h 84% 0in /  0.0mm 0 W/m2
05:28 39.7 °F /  4.3 °C 35.2 °F /  1.8 °C 29.8in /  1008.8hPa WNW 6.9mph /  11.1km/h 12mph /  19.3km/h 84% 0in /  0.0mm 0 W/m2
05:33 39.7 °F /  4.3 °C 35.2 °F /  1.8 °C 29.8in /  1008.8hPa WSW 8.1mph /  13km/h 10mph /  16.1km/h 84% 0in /  0.0mm 0 W/m2
05:38 39.9 °F /  4.4 °C 35.4 °F /  1.9 °C 29.8in /  1009.1hPa NW 4.9mph /  7.9km/h 11mph /  17.7km/h 84% 0in /  0.0mm 0 W/m2
05:43 39.9 °F /  4.4 °C 35.4 °F /  1.9 °C 29.8in /  1008.8hPa WSW 8.9mph /  14.3km/h 13mph /  20.9km/h 84% 0in /  0.0mm 0 W/m2
05:48 39.9 °F /  4.4 °C 35.4 °F /  1.9 °C 29.8in /  1008.8hPa WNW 8.1mph /  13km/h 9mph /  14.5km/h 84% 0in /  0.0mm 0 W/m2
05:53 40.1 °F /  4.5 °C 35.6 °F /  2 °C 29.8in /  1008.8hPa West 8.9mph /  14.3km/h 9mph /  14.5km/h 84% 0in /  0.0mm 0 W/m2
05:58 40.3 °F /  4.6 °C 35.8 °F /  2.1 °C 29.8in /  1009.1hPa West 6.9mph /  11.1km/h 12mph /  19.3km/h 84% 0in /  0.0mm 0 W/m2
06:03 40.5 °F /  4.7 °C 36 °F /  2.2 °C 29.8in /  1009.1hPa WNW 6mph /  9.7km/h 10mph /  16.1km/h 84% 0in /  0.0mm 0 W/m2
06:08 40.6 °F /  4.8 °C 36.1 °F /  2.3 °C 29.8in /  1008.8hPa West 10.1mph /  16.3km/h 19mph /  30.6km/h 84% 0in /  0.0mm 0 W/m2
06:13 40.8 °F /  4.9 °C 35.8 °F /  2.1 °C 29.8in /  1008.8hPa WNW 8.9mph /  14.3km/h 12mph /  19.3km/h 82% 0in /  0.0mm 0 W/m2
06:18 40.8 °F /  4.9 °C 35.4 °F /  1.9 °C 29.8in /  1008.8hPa WSW 8.1mph /  13km/h 15mph /  24.1km/h 81% 0in /  0.0mm 0 W/m2
06:23 40.8 °F /  4.9 °C 35.4 °F /  1.9 °C 29.8in /  1009.1hPa SW 14.1mph /  22.7km/h 16mph /  25.7km/h 81% 0in /  0.0mm 0 W/m2
06:28 40.6 °F /  4.8 °C 35.6 °F /  2 °C 29.8in /  1009.1hPa WNW 6.9mph /  11.1km/h 13mph /  20.9km/h 82% 0in /  0.0mm 0 W/m2
06:33 40.6 °F /  4.8 °C 35.6 °F /  2 °C 29.8in /  1008.8hPa West 10.1mph /  16.3km/h 11mph /  17.7km/h 82% 0in /  0.0mm 0 W/m2
06:38 40.6 °F /  4.8 °C 36 °F /  2.2 °C 29.8in /  1009.1hPa WNW 11mph /  17.7km/h 14mph /  22.5km/h 83% 0in /  0.0mm 0 W/m2
06:43 40.6 °F /  4.8 °C 36 °F /  2.2 °C 29.8in /  1009.1hPa NW 2.9mph /  4.7km/h 7mph /  11.3km/h 83% 0in /  0.0mm 0 W/m2
06:48 40.5 °F /  4.7 °C 35.8 °F /  2.1 °C 29.8in /  1009.1hPa SW 4.9mph /  7.9km/h 14mph /  22.5km/h 83% 0in /  0.0mm 0 W/m2
06:53 40.5 °F /  4.7 °C 36 °F /  2.2 °C 29.8in /  1009.1hPa WSW 12.1mph /  19.5km/h 12mph /  19.3km/h 84% 0in /  0.0mm 0 W/m2
06:58 40.5 °F /  4.7 °C 36 °F /  2.2 °C 29.8in /  1009.1hPa WNW 10.1mph /  16.3km/h 13mph /  20.9km/h 84% 0in /  0.0mm 0 W/m2
07:03 40.6 °F /  4.8 °C 36.1 °F /  2.3 °C 29.8in /  1009.1hPa WSW 6.9mph /  11.1km/h 11mph /  17.7km/h 84% 0in /  0.0mm 0 W/m2
07:08 40.6 °F /  4.8 °C 36.1 °F /  2.3 °C 29.8in /  1009.1hPa West 6mph /  9.7km/h 11mph /  17.7km/h 84% 0in /  0.0mm 0 W/m2
07:13 40.6 °F /  4.8 °C 36.5 °F /  2.5 °C 29.8in /  1009.1hPa NW 8.9mph /  14.3km/h 11mph /  17.7km/h 85% 0in /  0.0mm 0 W/m2
07:18 40.6 °F /  4.8 °C 36.5 °F /  2.5 °C 29.8in /  1009.5hPa West 8.1mph /  13km/h 10mph /  16.1km/h 85% 0in /  0.0mm 0 W/m2
07:23 40.6 °F /  4.8 °C 36.5 °F /  2.5 °C 29.8in /  1009.5hPa West 11mph /  17.7km/h 12mph /  19.3km/h 85% 0in /  0.0mm 0 W/m2
07:29 40.8 °F /  4.9 °C 36.3 °F /  2.4 °C 29.8in /  1009.5hPa West 10.1mph /  16.3km/h 13mph /  20.9km/h 84% 0in /  0.0mm 0 W/m2
07:34 40.8 °F /  4.9 °C 36.3 °F /  2.4 °C 29.8in /  1009.5hPa West 6mph /  9.7km/h 8mph /  12.9km/h 84% 0in /  0.0mm 0 W/m2
07:39 40.8 °F /  4.9 °C 36.3 °F /  2.4 °C 29.8in /  1009.5hPa West 13mph /  20.9km/h 13mph /  20.9km/h 84% 0in /  0.0mm 0 W/m2
07:44 41 °F /  5 °C 36.3 °F /  2.4 °C 29.8in /  1009.8hPa WNW 4.9mph /  7.9km/h 13mph /  20.9km/h 83% 0in /  0.0mm 0 W/m2
07:49 41 °F /  5 °C 36.3 °F /  2.4 °C 29.8in /  1010.2hPa West 11mph /  17.7km/h 20mph /  32.2km/h 83% 0in /  0.0mm 0 W/m2
07:54 41.2 °F /  5.1 °C 36.5 °F /  2.5 °C 29.8in /  1010.2hPa West 8.9mph /  14.3km/h 15mph /  24.1km/h 83% 0in /  0.0mm 0 W/m2
07:59 41.2 °F /  5.1 °C 36.5 °F /  2.5 °C 29.8in /  1010.2hPa WNW 10.1mph /  16.3km/h 14mph /  22.5km/h 83% 0in /  0.0mm 5 W/m2
08:04 41 °F /  5 °C 36.3 °F /  2.4 °C 29.8in /  1010.2hPa West 8.1mph /  13km/h 11mph /  17.7km/h 83% 0in /  0.0mm 9 W/m2
08:09 41 °F /  5 °C 36 °F /  2.2 °C 29.8in /  1010.2hPa WNW 6.9mph /  11.1km/h 15mph /  24.1km/h 82% 0in /  0.0mm 14 W/m2
08:14 41 °F /  5 °C 36 °F /  2.2 °C 29.8in /  1010.5hPa WSW 11mph /  17.7km/h 16mph /  25.7km/h 82% 0in /  0.0mm 25 W/m2
08:19 41.2 °F /  5.1 °C 36.1 °F /  2.3 °C 29.8in /  1010.2hPa WNW 8.1mph /  13km/h 11mph /  17.7km/h 82% 0in /  0.0mm 42 W/m2
08:24 41.2 °F /  5.1 °C 36.1 °F /  2.3 °C 29.8in /  1010.5hPa West 8.9mph /  14.3km/h 9mph /  14.5km/h 82% 0in /  0.0mm 23 W/m2
08:29 41.2 °F /  5.1 °C 36.5 °F /  2.5 °C 29.8in /  1010.5hPa WSW 2.9mph /  4.7km/h 13mph /  20.9km/h 83% 0in /  0.0mm 21 W/m2
08:34 41 °F /  5 °C 36.3 °F /  2.4 °C 29.8in /  1010.2hPa WSW 2mph /  3.2km/h 7mph /  11.3km/h 83% 0in /  0.0mm 25 W/m2
08:39 41 °F /  5 °C 36.3 °F /  2.4 °C 29.8in /  1010.2hPa West 4mph /  6.4km/h 12mph /  19.3km/h 83% 0in /  0.0mm 28 W/m2
08:44 41 °F /  5 °C 36.3 °F /  2.4 °C 29.8in /  1010.2hPa WSW 4mph /  6.4km/h 11mph /  17.7km/h 83% 0in /  0.0mm 32 W/m2
08:49 41 °F /  5 °C 36.3 °F /  2.4 °C 29.8in /  1010.2hPa West 8.9mph /  14.3km/h 10mph /  16.1km/h 83% 0in /  0.0mm 37 W/m2
08:54 41.2 °F /  5.1 °C 36.5 °F /  2.5 °C 29.8in /  1010.2hPa West 8.9mph /  14.3km/h 14mph /  22.5km/h 83% 0in /  0.0mm 46 W/m2
08:59 41.2 °F /  5.1 °C 36.1 °F /  2.3 °C 29.8in /  1010.5hPa WNW 6mph /  9.7km/h 12mph /  19.3km/h 82% 0in /  0.0mm 49 W/m2
09:04 41.4 °F /  5.2 °C 36.3 °F /  2.4 °C 29.8in /  1010.2hPa West 2mph /  3.2km/h 8mph /  12.9km/h 82% 0in /  0.0mm 47 W/m2
09:09 41.4 °F /  5.2 °C 36.3 °F /  2.4 °C 29.8in /  1010.2hPa WSW 4mph /  6.4km/h 9mph /  14.5km/h 82% 0in /  0.0mm 42 W/m2
09:14 41.4 °F /  5.2 °C 36.3 °F /  2.4 °C 29.8in /  1010.5hPa NW 4.9mph /  7.9km/h 9mph /  14.5km/h 82% 0in /  0.0mm 32 W/m2
09:19 41.5 °F /  5.3 °C 36.7 °F /  2.6 °C 29.8in /  1010.5hPa WSW 17mph /  27.4km/h 17mph /  27.4km/h 83% 0in /  0.0mm 83 W/m2
09:24 41.5 °F /  5.3 °C 36.7 °F /  2.6 °C 29.8in /  1010.5hPa West 2.9mph /  4.7km/h 9mph /  14.5km/h 83% 0in /  0.0mm 60 W/m2
09:29 41.7 °F /  5.4 °C 36.9 °F /  2.7 °C 29.8in /  1010.5hPa NW 2.9mph /  4.7km/h 8mph /  12.9km/h 83% 0in /  0.0mm 79 W/m2
09:34 41.7 °F /  5.4 °C 36.9 °F /  2.7 °C 29.8in /  1010.5hPa WSW 12.1mph /  19.5km/h 13mph /  20.9km/h 83% 0in /  0.0mm 125 W/m2
09:39 42.1 °F /  5.6 °C 37.6 °F /  3.1 °C 29.8in /  1010.5hPa West 2mph /  3.2km/h 13mph /  20.9km/h 84% 0in /  0.0mm 132 W/m2
09:44 42.3 °F /  5.7 °C 37.4 °F /  3 °C 29.8in /  1010.5hPa WNW 6.9mph /  11.1km/h 10mph /  16.1km/h 83% 0in /  0.0mm 185 W/m2
09:49 42.4 °F /  5.8 °C 37.6 °F /  3.1 °C 29.8in /  1010.5hPa NW 8.9mph /  14.3km/h 13mph /  20.9km/h 83% 0in /  0.0mm 118 W/m2
09:54 42.4 °F /  5.8 °C 37.6 °F /  3.1 °C 29.8in /  1010.5hPa West 10.1mph /  16.3km/h 10mph /  16.1km/h 83% 0in /  0.0mm 77 W/m2
09:59 42.4 °F /  5.8 °C 37.4 °F /  3 °C 29.8in /  1010.2hPa WNW 10.1mph /  16.3km/h 16mph /  25.7km/h 82% 0in /  0.0mm 104 W/m2
10:05 42.4 °F /  5.8 °C 37 °F /  2.8 °C 29.8in /  1010.2hPa West 8.1mph /  13km/h 10mph /  16.1km/h 81% 0in /  0.0mm 77 W/m2
10:10 42.4 °F /  5.8 °C 36.7 °F /  2.6 °C 29.8in /  1010.5hPa WNW 2.9mph /  4.7km/h 17mph /  27.4km/h 80% 0in /  0.0mm 107 W/m2
10:15 42.4 °F /  5.8 °C 36.7 °F /  2.6 °C 29.8in /  1010.5hPa West 6.9mph /  11.1km/h 14mph /  22.5km/h 80% 0in /  0.0mm 151 W/m2
10:20 42.6 °F /  5.9 °C 36.5 °F /  2.5 °C 29.8in /  1010.5hPa SW 4.9mph /  7.9km/h 9mph /  14.5km/h 79% 0in /  0.0mm 206 W/m2
10:25 42.8 °F /  6 °C 36.7 °F /  2.6 °C 29.9in /  1010.8hPa West 6mph /  9.7km/h 12mph /  19.3km/h 79% 0in /  0.0mm 134 W/m2
10:30 43 °F /  6.1 °C 36.9 °F /  2.7 °C 29.8in /  1010.5hPa NNW 6mph /  9.7km/h 10mph /  16.1km/h 79% 0in /  0.0mm 114 W/m2
10:35 43 °F /  6.1 °C 36.3 °F /  2.4 °C 29.9in /  1010.8hPa West 12.1mph /  19.5km/h 13mph /  20.9km/h 77% 0in /  0.0mm 158 W/m2
10:40 43 °F /  6.1 °C 36.3 °F /  2.4 °C 29.9in /  1010.8hPa West 2.9mph /  4.7km/h 9mph /  14.5km/h 77% 0in /  0.0mm 193 W/m2
10:45 43.2 °F /  6.2 °C 36.1 °F /  2.3 °C 29.9in /  1010.8hPa SW 6mph /  9.7km/h 13mph /  20.9km/h 76% 0in /  0.0mm 137 W/m2
10:50 43.2 °F /  6.2 °C 35.8 °F /  2.1 °C 29.9in /  1010.8hPa WNW 12.1mph /  19.5km/h 19mph /  30.6km/h 75% 0in /  0.0mm 104 W/m2
10:55 43.2 °F /  6.2 °C 35.8 °F /  2.1 °C 29.9in /  1010.8hPa NW 10.1mph /  16.3km/h 15mph /  24.1km/h 75% 0in /  0.0mm 144 W/m2
11:00 43.3 °F /  6.3 °C 36 °F /  2.2 °C 29.9in /  1010.8hPa West 6mph /  9.7km/h 9mph /  14.5km/h 75% 0in /  0.0mm 137 W/m2
11:05 43.3 °F /  6.3 °C 36 °F /  2.2 °C 29.9in /  1011.2hPa West 6.9mph /  11.1km/h 8mph /  12.9km/h 75% 0in /  0.0mm 111 W/m2
11:10 43.3 °F /  6.3 °C 36 °F /  2.2 °C 29.9in /  1011.5hPa WSW 10.1mph /  16.3km/h 17mph /  27.4km/h 75% 0in /  0.0mm 176 W/m2
11:15 43.3 °F /  6.3 °C 35.6 °F /  2 °C 29.9in /  1011.2hPa West 10.1mph /  16.3km/h 13mph /  20.9km/h 74% 0in /  0.0mm 148 W/m2
11:20 43.3 °F /  6.3 °C 36 °F /  2.2 °C 29.9in /  1011.2hPa West 11mph /  17.7km/h 15mph /  24.1km/h 75% 0in /  0.0mm 167 W/m2
11:25 43.3 °F /  6.3 °C 35.6 °F /  2 °C 29.9in /  1011.2hPa WNW 6.9mph /  11.1km/h 11mph /  17.7km/h 74% 0in /  0.0mm 114 W/m2
11:30 43.3 °F /  6.3 °C 35.6 °F /  2 °C 29.9in /  1011.2hPa West 10.1mph /  16.3km/h 11mph /  17.7km/h 74% 0in /  0.0mm 98 W/m2
11:35 43.3 °F /  6.3 °C 35.6 °F /  2 °C 29.9in /  1011.2hPa West 4mph /  6.4km/h 18mph /  29km/h 74% 0in /  0.0mm 172 W/m2
11:41 43.5 °F /  6.4 °C 35.8 °F /  2.1 °C 29.9in /  1011.2hPa WNW 8.9mph /  14.3km/h 14mph /  22.5km/h 74% 0in /  0.0mm 132 W/m2
11:46 43.7 °F /  6.5 °C 36 °F /  2.2 °C 29.9in /  1011.5hPa WNW 6.9mph /  11.1km/h 13mph /  20.9km/h 74% 0in /  0.0mm 178 W/m2
11:51 43.7 °F /  6.5 °C 36 °F /  2.2 °C 29.9in /  1011.5hPa WNW 8.1mph /  13km/h 9mph /  14.5km/h 74% 0in /  0.0mm 192 W/m2
11:56 43.9 °F /  6.6 °C 36.1 °F /  2.3 °C 29.9in /  1011.5hPa West 10.1mph /  16.3km/h 14mph /  22.5km/h 74% 0in /  0.0mm 83 W/m2
12:01 43.9 °F /  6.6 °C 36.1 °F /  2.3 °C 29.9in /  1011.2hPa WSW 10.1mph /  16.3km/h 11mph /  17.7km/h 74% 0in /  0.0mm 151 W/m2
12:06 44.1 °F /  6.7 °C 36 °F /  2.2 °C 29.9in /  1011.5hPa WNW 8.1mph /  13km/h 17mph /  27.4km/h 73% 0in /  0.0mm 98 W/m2
12:11 44.1 °F /  6.7 °C 36 °F /  2.2 °C 29.9in /  1011.5hPa NW 6mph /  9.7km/h 18mph /  29km/h 73% 0in /  0.0mm 155 W/m2
12:16 44.1 °F /  6.7 °C 36 °F /  2.2 °C 29.9in /  1011.5hPa West 8.1mph /  13km/h 10mph /  16.1km/h 73% 0in /  0.0mm 162 W/m2
12:21 44.1 °F /  6.7 °C 35.6 °F /  2 °C 29.9in /  1011.5hPa WNW 8.1mph /  13km/h 17mph /  27.4km/h 72% 0in /  0.0mm 102 W/m2
12:26 44.2 °F /  6.8 °C 35.8 °F /  2.1 °C 29.9in /  1011.5hPa WNW 6.9mph /  11.1km/h 16mph /  25.7km/h 72% 0in /  0.0mm 211 W/m2
12:31 44.2 °F /  6.8 °C 35.8 °F /  2.1 °C 29.9in /  1011.5hPa West 6.9mph /  11.1km/h 13mph /  20.9km/h 72% 0in /  0.0mm 279 W/m2
12:36 44.2 °F /  6.8 °C 35.4 °F /  1.9 °C 29.9in /  1011.5hPa West 8.1mph /  13km/h 17mph /  27.4km/h 71% 0in /  0.0mm 200 W/m2
12:41 44.2 °F /  6.8 °C 35.8 °F /  2.1 °C 29.9in /  1011.5hPa NW 2.9mph /  4.7km/h 7mph /  11.3km/h 72% 0in /  0.0mm 193 W/m2
12:46 44.2 °F /  6.8 °C 35.8 °F /  2.1 °C 29.9in /  1011.5hPa SW 10.1mph /  16.3km/h 20mph /  32.2km/h 72% 0in /  0.0mm 127 W/m2
12:51 44.2 °F /  6.8 °C 35.8 °F /  2.1 °C 29.9in /  1011.5hPa WSW 8.9mph /  14.3km/h 11mph /  17.7km/h 72% 0in /  0.0mm 142 W/m2
12:56 44.2 °F /  6.8 °C 35.1 °F /  1.7 °C 29.9in /  1011.5hPa WSW 12.1mph /  19.5km/h 12mph /  19.3km/h 70% 0in /  0.0mm 118 W/m2
13:01 44.2 °F /  6.8 °C 35.4 °F /  1.9 °C 29.9in /  1011.2hPa West 4mph /  6.4km/h 10mph /  16.1km/h 71% 0in /  0.0mm 202 W/m2
13:06 44.4 °F /  6.9 °C 35.2 °F /  1.8 °C 29.9in /  1011.2hPa West 13mph /  20.9km/h 14mph /  22.5km/h 70% 0in /  0.0mm 162 W/m2
13:11 44.4 °F /  6.9 °C 34.9 °F /  1.6 °C 29.9in /  1011.2hPa West 13mph /  20.9km/h 13mph /  20.9km/h 69% 0in /  0.0mm 123 W/m2
13:16 44.4 °F /  6.9 °C 34.9 °F /  1.6 °C 29.9in /  1011.2hPa West 6.9mph /  11.1km/h 13mph /  20.9km/h 69% 0in /  0.0mm 183 W/m2
13:21 44.6 °F /  7 °C 35.1 °F /  1.7 °C 29.9in /  1011.2hPa NW 4.9mph /  7.9km/h 14mph /  22.5km/h 69% 0in /  0.0mm 146 W/m2
13:26 44.8 °F /  7.1 °C 35.2 °F /  1.8 °C 29.9in /  1011.2hPa West 6mph /  9.7km/h 19mph /  30.6km/h 69% 0in /  0.0mm 134 W/m2
13:31 44.6 °F /  7 °C 35.1 °F /  1.7 °C 29.9in /  1011.2hPa WSW 8.1mph /  13km/h 12mph /  19.3km/h 69% 0in /  0.0mm 125 W/m2
13:36 44.8 °F /  7.1 °C 35.2 °F /  1.8 °C 29.9in /  1011.2hPa WNW 17.9mph /  28.8km/h 18mph /  29km/h 69% 0in /  0.0mm 188 W/m2
13:41 44.8 °F /  7.1 °C 34.9 °F /  1.6 °C 29.9in /  1011.2hPa West 2.9mph /  4.7km/h 13mph /  20.9km/h 68% 0in /  0.0mm 105 W/m2
13:46 45 °F /  7.2 °C 35.1 °F /  1.7 °C 29.9in /  1011.2hPa WNW 4mph /  6.4km/h 14mph /  22.5km/h 68% 0in /  0.0mm 134 W/m2
13:51 45 °F /  7.2 °C 35.4 °F /  1.9 °C 29.9in /  1011.2hPa West 8.1mph /  13km/h 13mph /  20.9km/h 69% 0in /  0.0mm 62 W/m2
13:56 45 °F /  7.2 °C 35.1 °F /  1.7 °C 29.9in /  1011.2hPa WNW 6.9mph /  11.1km/h 10mph /  16.1km/h 68% 0in /  0.0mm 158 W/m2
14:01 45 °F /  7.2 °C 34.3 °F /  1.3 °C 29.9in /  1011.2hPa NW 2.9mph /  4.7km/h 16mph /  25.7km/h 66% 0in /  0.0mm 77 W/m2
14:06 45 °F /  7.2 °C 34 °F /  1.1 °C 29.9in /  1011.2hPa NW 10.1mph /  16.3km/h 18mph /  29km/h 65% 0in /  0.0mm 97 W/m2
14:12 45 °F /  7.2 °C 34.3 °F /  1.3 °C 29.9in /  1011.2hPa WSW 11mph /  17.7km/h 16mph /  25.7km/h 66% 0in /  0.0mm 127 W/m2
14:17 45.1 °F /  7.3 °C 34.9 °F /  1.6 °C 29.9in /  1011.2hPa WSW 6.9mph /  11.1km/h 12mph /  19.3km/h 67% 0in /  0.0mm 151 W/m2
14:22 45.1 °F /  7.3 °C 35.2 °F /  1.8 °C 29.9in /  1011.2hPa WSW 12.1mph /  19.5km/h 12mph /  19.3km/h 68% 0in /  0.0mm 251 W/m2
14:27 45.7 °F /  7.6 °C 35.4 °F /  1.9 °C 29.9in /  1011.2hPa NW 4mph /  6.4km/h 5mph /  8km/h 67% 0in /  0.0mm 156 W/m2
14:32 45.9 °F /  7.7 °C 34.3 °F /  1.3 °C 29.9in /  1011.2hPa WSW 6.9mph /  11.1km/h 16mph /  25.7km/h 64% 0in /  0.0mm 155 W/m2
14:37 46 °F /  7.8 °C 33.8 °F /  1 °C 29.9in /  1011.2hPa West 11mph /  17.7km/h 21mph /  33.8km/h 62% 0in /  0.0mm 109 W/m2
14:42 46 °F /  7.8 °C 33.3 °F /  0.7 °C 29.9in /  1011.5hPa West 11mph /  17.7km/h 22mph /  35.4km/h 61% 0in /  0.0mm 98 W/m2
14:47 45.9 °F /  7.7 °C 34 °F /  1.1 °C 29.9in /  1011.5hPa WNW 8.1mph /  13km/h 11mph /  17.7km/h 63% 0in /  0.0mm 93 W/m2
14:52 45.7 °F /  7.6 °C 33.1 °F /  0.6 °C 29.9in /  1011.5hPa WNW 19mph /  30.6km/h 22mph /  35.4km/h 61% 0in /  0.0mm 104 W/m2
14:57 45.5 °F /  7.5 °C 32.9 °F /  0.5 °C 29.9in /  1011.2hPa WNW 16.1mph /  25.9km/h 16mph /  25.7km/h 61% 0in /  0.0mm 76 W/m2
15:02 45.3 °F /  7.4 °C 32.7 °F /  0.4 °C 29.9in /  1011.2hPa West 11mph /  17.7km/h 21mph /  33.8km/h 61% 0in /  0.0mm 49 W/m2
15:07 45.1 °F /  7.3 °C 33.3 °F /  0.7 °C 29.9in /  1011.2hPa West 10.1mph /  16.3km/h 13mph /  20.9km/h 63% 0in /  0.0mm 72 W/m2
15:12 45.3 °F /  7.4 °C 33.4 °F /  0.8 °C 29.9in /  1011.5hPa WNW 17mph /  27.4km/h 17mph /  27.4km/h 63% 0in /  0.0mm 160 W/m2
15:17 45.7 °F /  7.6 °C 33.8 °F /  1 °C 29.9in /  1011.5hPa WNW 14.1mph /  22.7km/h 20mph /  32.2km/h 63% 0in /  0.0mm 142 W/m2
15:22 45.7 °F /  7.6 °C 33.4 °F /  0.8 °C 29.9in /  1011.5hPa WSW 8.1mph /  13km/h 18mph /  29km/h 62% 0in /  0.0mm 118 W/m2
15:27 45.7 °F /  7.6 °C 33.4 °F /  0.8 °C 29.9in /  1011.5hPa WSW 11mph /  17.7km/h 12mph /  19.3km/h 62% 0in /  0.0mm 100 W/m2
15:32 45.3 °F /  7.4 °C 33.4 °F /  0.8 °C 29.9in /  1011.5hPa WSW 8.9mph /  14.3km/h 10mph /  16.1km/h 63% 0in /  0.0mm 79 W/m2
15:37 45.3 °F /  7.4 °C 33.8 °F /  1 °C 29.9in /  1011.5hPa SW 11mph /  17.7km/h 15mph /  24.1km/h 64% 0in /  0.0mm 100 W/m2
15:42 45.3 °F /  7.4 °C 33.8 °F /  1 °C 29.9in /  1011.5hPa West 4mph /  6.4km/h 11mph /  17.7km/h 64% 0in /  0.0mm 76 W/m2
15:47 45.5 °F /  7.5 °C 33.6 °F /  0.9 °C 29.9in /  1011.5hPa NW 11mph /  17.7km/h 14mph /  22.5km/h 63% 0in /  0.0mm 102 W/m2
15:52 45.3 °F /  7.4 °C 33.1 °F /  0.6 °C 29.9in /  1011.9hPa West 6.9mph /  11.1km/h 10mph /  16.1km/h 62% 0in /  0.0mm 63 W/m2
15:57 45.1 °F /  7.3 °C 33.3 °F /  0.7 °C 29.9in /  1011.9hPa WNW 11mph /  17.7km/h 14mph /  22.5km/h 63% 0in /  0.0mm 65 W/m2
16:02 45.1 °F /  7.3 °C 33.6 °F /  0.9 °C 29.9in /  1011.9hPa West 4mph /  6.4km/h 13mph /  20.9km/h 64% 0in /  0.0mm 63 W/m2
16:07 45 °F /  7.2 °C 33.4 °F /  0.8 °C 29.9in /  1011.5hPa WNW 8.9mph /  14.3km/h 12mph /  19.3km/h 64% 0in /  0.0mm 58 W/m2
16:12 45 °F /  7.2 °C 34 °F /  1.1 °C 29.9in /  1011.5hPa WNW 8.1mph /  13km/h 14mph /  22.5km/h 65% 0in /  0.0mm 90 W/m2
16:17 45 °F /  7.2 °C 34.3 °F /  1.3 °C 29.9in /  1011.9hPa SW 2.9mph /  4.7km/h 10mph /  16.1km/h 66% 0in /  0.0mm 76 W/m2
16:22 45 °F /  7.2 °C 34.3 °F /  1.3 °C 29.9in /  1011.9hPa WSW 8.1mph /  13km/h 14mph /  22.5km/h 66% 0in /  0.0mm 60 W/m2
16:27 45 °F /  7.2 °C 34.3 °F /  1.3 °C 29.9in /  1011.9hPa WNW 6.9mph /  11.1km/h 11mph /  17.7km/h 66% 0in /  0.0mm 86 W/m2
16:32 45.1 °F /  7.3 °C 34.2 °F /  1.2 °C 29.9in /  1011.9hPa WNW 2.9mph /  4.7km/h 8mph /  12.9km/h 65% 0in /  0.0mm 97 W/m2
16:37 45.1 °F /  7.3 °C 34.2 °F /  1.2 °C 29.9in /  1011.5hPa West 8.1mph /  13km/h 12mph /  19.3km/h 65% 0in /  0.0mm 70 W/m2
16:42 45.1 °F /  7.3 °C 33.6 °F /  0.9 °C 29.9in /  1011.5hPa West 6.9mph /  11.1km/h 8mph /  12.9km/h 64% 0in /  0.0mm 33 W/m2
16:47 45 °F /  7.2 °C 33.4 °F /  0.8 °C 29.9in /  1011.5hPa West 6.9mph /  11.1km/h 11mph /  17.7km/h 64% 0in /  0.0mm 9 W/m2
16:52 45 °F /  7.2 °C 34 °F /  1.1 °C 29.9in /  1011.5hPa West 4mph /  6.4km/h 9mph /  14.5km/h 65% 0in /  0.0mm 9 W/m2
16:57 44.8 °F /  7.1 °C 33.8 °F /  1 °C 29.9in /  1011.9hPa SSE 2.9mph /  4.7km/h 14mph /  22.5km/h 65% 0in /  0.0mm 32 W/m2
17:02 44.6 °F /  7 °C 33.3 °F /  0.7 °C 29.9in /  1011.5hPa WNW 12.1mph /  19.5km/h 17mph /  27.4km/h 64% 0in /  0.0mm 18 W/m2
17:07 44.4 °F /  6.9 °C 32.5 °F /  0.3 °C 29.9in /  1011.5hPa WSW 6.9mph /  11.1km/h 14mph /  22.5km/h 63% 0in /  0.0mm 21 W/m2
17:12 44.6 °F /  7 °C 32.4 °F /  0.2 °C 29.9in /  1011.9hPa West 2.9mph /  4.7km/h 17mph /  27.4km/h 62% 0in /  0.0mm 11 W/m2
17:17 44.6 °F /  7 °C 32.7 °F /  0.4 °C 29.9in /  1012.2hPa WSW 19mph /  30.6km/h 20mph /  32.2km/h 63% 0in /  0.0mm 9 W/m2
17:22 44.2 °F /  6.8 °C 33.6 °F /  0.9 °C 29.9in /  1012.2hPa WSW 21mph /  33.8km/h 26mph /  41.8km/h 66% 0in /  0.0mm 12 W/m2
17:27 44.1 °F /  6.7 °C 33.4 °F /  0.8 °C 29.9in /  1012.2hPa West 10.1mph /  16.3km/h 18mph /  29km/h 66% 0in /  0.0mm 14 W/m2
17:32 43.5 °F /  6.4 °C 33.6 °F /  0.9 °C 29.9in /  1012.5hPa West 10.1mph /  16.3km/h 26mph /  41.8km/h 68% 0in /  0.0mm 7 W/m2
17:37 43.3 °F /  6.3 °C 33.4 °F /  0.8 °C 29.9in /  1012.2hPa SSW 8.9mph /  14.3km/h 19mph /  30.6km/h 68% 0in /  0.0mm 5 W/m2
17:42 43.3 °F /  6.3 °C 33.4 °F /  0.8 °C 29.9in /  1012.2hPa WNW 11mph /  17.7km/h 15mph /  24.1km/h 68% 0in /  0.0mm 5 W/m2
17:47 43.3 °F /  6.3 °C 33.4 °F /  0.8 °C 29.9in /  1012.5hPa NW 16.1mph /  25.9km/h 19mph /  30.6km/h 68% 0in /  0.0mm 0 W/m2
17:52 43.2 °F /  6.2 °C 33.6 °F /  0.9 °C 29.9in /  1012.5hPa WNW 4.9mph /  7.9km/h 18mph /  29km/h 69% 0in /  0.0mm 0 W/m2
17:57 43.2 °F /  6.2 °C 33.6 °F /  0.9 °C 29.9in /  1012.5hPa West 4mph /  6.4km/h 15mph /  24.1km/h 69% 0in /  0.0mm 0 W/m2
18:02 43.2 °F /  6.2 °C 34 °F /  1.1 °C 29.9in /  1012.5hPa West 6mph /  9.7km/h 8mph /  12.9km/h 70% 0in /  0.0mm 0 W/m2
18:07 43.2 °F /  6.2 °C 34 °F /  1.1 °C 29.9in /  1012.5hPa NW 4mph /  6.4km/h 9mph /  14.5km/h 70% 0in /  0.0mm 0 W/m2
18:12 43 °F /  6.1 °C 34.2 °F /  1.2 °C 29.9in /  1012.5hPa WNW 4.9mph /  7.9km/h 15mph /  24.1km/h 71% 0in /  0.0mm 0 W/m2
18:17 42.6 °F /  5.9 °C 34.2 °F /  1.2 °C 29.9in /  1012.9hPa NW 4mph /  6.4km/h 11mph /  17.7km/h 72% 0in /  0.0mm 0 W/m2
18:23 42.4 °F /  5.8 °C 34.3 °F /  1.3 °C 29.9in /  1012.9hPa NNW 8.1mph /  13km/h 17mph /  27.4km/h 73% 0in /  0.0mm 0 W/m2
18:28 42.3 °F /  5.7 °C 34.2 °F /  1.2 °C 29.9in /  1012.9hPa West 10.1mph /  16.3km/h 10mph /  16.1km/h 73% 0in /  0.0mm 0 W/m2
18:33 42.1 °F /  5.6 °C 34.3 °F /  1.3 °C 29.9in /  1012.9hPa West 6mph /  9.7km/h 13mph /  20.9km/h 74% 0in /  0.0mm 0 W/m2
18:38 42.1 °F /  5.6 °C 34.3 °F /  1.3 °C 29.9in /  1012.9hPa West 8.1mph /  13km/h 13mph /  20.9km/h 74% 0in /  0.0mm 0 W/m2
18:43 41.9 °F /  5.5 °C 34.2 °F /  1.2 °C 29.9in /  1012.9hPa WNW 4mph /  6.4km/h 15mph /  24.1km/h 74% 0in /  0.0mm 0 W/m2
18:48 41.9 °F /  5.5 °C 34.2 °F /  1.2 °C 29.9in /  1012.9hPa WNW 4.9mph /  7.9km/h 16mph /  25.7km/h 74% 0in /  0.0mm 0 W/m2
18:53 42.1 °F /  5.6 °C 34.3 °F /  1.3 °C 29.9in /  1013.2hPa West 6mph /  9.7km/h 11mph /  17.7km/h 74% 0in /  0.0mm 0 W/m2
18:58 42.1 °F /  5.6 °C 34.3 °F /  1.3 °C 29.9in /  1013.2hPa West 12.1mph /  19.5km/h 12mph /  19.3km/h 74% 0in /  0.0mm 0 W/m2
19:03 42.1 °F /  5.6 °C 34.3 °F /  1.3 °C 29.9in /  1013.5hPa SW 13mph /  20.9km/h 20mph /  32.2km/h 74% 0in /  0.0mm 0 W/m2
19:08 41.9 °F /  5.5 °C 34.2 °F /  1.2 °C 29.9in /  1013.5hPa West 6mph /  9.7km/h 13mph /  20.9km/h 74% 0in /  0.0mm 0 W/m2
19:13 41.9 °F /  5.5 °C 34.5 °F /  1.4 °C 29.9in /  1013.5hPa WNW 2mph /  3.2km/h 10mph /  16.1km/h 75% 0in /  0.0mm 0 W/m2
19:18 41.9 °F /  5.5 °C 34.5 °F /  1.4 °C 29.9in /  1013.5hPa South 2mph /  3.2km/h 6mph /  9.7km/h 75% 0in /  0.0mm 0 W/m2
19:23 41.7 °F /  5.4 °C 34.3 °F /  1.3 °C 29.9in /  1013.5hPa WNW 8.9mph /  14.3km/h 12mph /  19.3km/h 75% 0in /  0.0mm 0 W/m2
19:28 41.7 °F /  5.4 °C 34.7 °F /  1.5 °C 29.9in /  1013.5hPa NNW 13mph /  20.9km/h 18mph /  29km/h 76% 0in /  0.0mm 0 W/m2
19:33 41.5 °F /  5.3 °C 34.5 °F /  1.4 °C 29.9in /  1013.9hPa WSW 8.1mph /  13km/h 16mph /  25.7km/h 76% 0in /  0.0mm 0 W/m2
19:38 41.5 °F /  5.3 °C 34.9 °F /  1.6 °C 29.9in /  1013.9hPa SW 6.9mph /  11.1km/h 16mph /  25.7km/h 77% 0in /  0.0mm 0 W/m2
19:43 41.4 °F /  5.2 °C 34.7 °F /  1.5 °C 30in /  1014.2hPa West 12.1mph /  19.5km/h 14mph /  22.5km/h 77% 0in /  0.0mm 0 W/m2
19:48 41.2 °F /  5.1 °C 34.5 °F /  1.4 °C 30in /  1014.6hPa West 17mph /  27.4km/h 17mph /  27.4km/h 77% 0in /  0.0mm 0 W/m2
19:53 41.2 °F /  5.1 °C 34.9 °F /  1.6 °C 30in /  1014.2hPa WNW 6.9mph /  11.1km/h 19mph /  30.6km/h 78% 0in /  0.0mm 0 W/m2
19:58 40.8 °F /  4.9 °C 34.5 °F /  1.4 °C 30in /  1014.2hPa West 14.1mph /  22.7km/h 14mph /  22.5km/h 78% 0in /  0.0mm 0 W/m2
20:03 40.8 °F /  4.9 °C 34.9 °F /  1.6 °C 30in /  1014.2hPa WNW 2mph /  3.2km/h 17mph /  27.4km/h 79% 0in /  0.0mm 0 W/m2
20:08 40.6 °F /  4.8 °C 34.7 °F /  1.5 °C 30in /  1014.2hPa WNW 16.1mph /  25.9km/h 20mph /  32.2km/h 79% 0in /  0.0mm 0 W/m2
20:13 40.5 °F /  4.7 °C 34.5 °F /  1.4 °C 30in /  1014.6hPa WNW 8.9mph /  14.3km/h 13mph /  20.9km/h 79% 0in /  0.0mm 0 W/m2
20:18 40.5 °F /  4.7 °C 34.5 °F /  1.4 °C 30in /  1014.6hPa WNW 6.9mph /  11.1km/h 14mph /  22.5km/h 79% 0in /  0.0mm 0 W/m2
20:23 40.3 °F /  4.6 °C 34.5 °F /  1.4 °C 30in /  1014.6hPa West 8.1mph /  13km/h 12mph /  19.3km/h 80% 0in /  0.0mm 0 W/m2
20:28 40.3 °F /  4.6 °C 34.5 °F /  1.4 °C 30in /  1014.6hPa West 6.9mph /  11.1km/h 13mph /  20.9km/h 80% 0in /  0.0mm 0 W/m2
20:34 40.3 °F /  4.6 °C 34.5 °F /  1.4 °C 30in /  1014.9hPa WNW 15mph /  24.1km/h 18mph /  29km/h 80% 0in /  0.0mm 0 W/m2
20:39 40.3 °F /  4.6 °C 34.5 °F /  1.4 °C 30in /  1014.9hPa NW 8.9mph /  14.3km/h 16mph /  25.7km/h 80% 0in /  0.0mm 0 W/m2
20:44 40.3 °F /  4.6 °C 34.5 °F /  1.4 °C 30in /  1014.6hPa WSW 8.1mph /  13km/h 18mph /  29km/h 80% 0in /  0.0mm 0 W/m2
20:49 40.3 °F /  4.6 °C 34.5 °F /  1.4 °C 30in /  1014.6hPa WSW 8.9mph /  14.3km/h 13mph /  20.9km/h 80% 0in /  0.0mm 0 W/m2
20:54 40.3 °F /  4.6 °C 34.5 °F /  1.4 °C 30in /  1014.9hPa NW 11mph /  17.7km/h 14mph /  22.5km/h 80% 0in /  0.0mm 0 W/m2
20:59 40.3 °F /  4.6 °C 34.5 °F /  1.4 °C 30in /  1014.9hPa NNW 8.9mph /  14.3km/h 15mph /  24.1km/h 80% 0in /  0.0mm 0 W/m2
21:04 40.3 °F /  4.6 °C 34.5 °F /  1.4 °C 30in /  1014.9hPa West 11mph /  17.7km/h 11mph /  17.7km/h 80% 0in /  0.0mm 0 W/m2
21:09 40.3 °F /  4.6 °C 34.5 °F /  1.4 °C 30in /  1014.9hPa West 2.9mph /  4.7km/h 10mph /  16.1km/h 80% 0in /  0.0mm 0 W/m2
21:14 40.3 °F /  4.6 °C 34.5 °F /  1.4 °C 30in /  1014.9hPa West 8.9mph /  14.3km/h 17mph /  27.4km/h 80% 0in /  0.0mm 0 W/m2
21:19 40.5 °F /  4.7 °C 34.7 °F /  1.5 °C 30in /  1014.9hPa NW 6mph /  9.7km/h 10mph /  16.1km/h 80% 0in /  0.0mm 0 W/m2
21:24 40.5 °F /  4.7 °C 34.7 °F /  1.5 °C 30in /  1015.2hPa WNW 10.1mph /  16.3km/h 17mph /  27.4km/h 80% 0in /  0.0mm 0 W/m2
21:29 40.5 °F /  4.7 °C 34.7 °F /  1.5 °C 30in /  1015.2hPa WSW 8.9mph /  14.3km/h 9mph /  14.5km/h 80% 0in /  0.0mm 0 W/m2
21:34 40.5 °F /  4.7 °C 34.7 °F /  1.5 °C 30in /  1015.2hPa West 11mph /  17.7km/h 17mph /  27.4km/h 80% 0in /  0.0mm 0 W/m2
21:39 40.5 °F /  4.7 °C 34.7 °F /  1.5 °C 30in /  1015.2hPa West 8.9mph /  14.3km/h 10mph /  16.1km/h 80% 0in /  0.0mm 0 W/m2
21:44 40.5 °F /  4.7 °C 34.7 °F /  1.5 °C 30in /  1015.2hPa WNW 8.9mph /  14.3km/h 9mph /  14.5km/h 80% 0in /  0.0mm 0 W/m2
21:49 40.3 °F /  4.6 °C 34.5 °F /  1.4 °C 30in /  1015.6hPa West 8.9mph /  14.3km/h 12mph /  19.3km/h 80% 0in /  0.0mm 0 W/m2
21:54 40.3 °F /  4.6 °C 34.5 °F /  1.4 °C 30in /  1015.6hPa West 4mph /  6.4km/h 13mph /  20.9km/h 80% 0in /  0.0mm 0 W/m2
21:59 40.3 °F /  4.6 °C 34.9 °F /  1.6 °C 30in /  1015.6hPa West 6.9mph /  11.1km/h 12mph /  19.3km/h 81% 0in /  0.0mm 0 W/m2
22:04 40.1 °F /  4.5 °C 34.7 °F /  1.5 °C 30in /  1015.6hPa WSW 2.9mph /  4.7km/h 13mph /  20.9km/h 81% 0in /  0.0mm 0 W/m2
22:09 40.1 °F /  4.5 °C 34.7 °F /  1.5 °C 30in /  1015.9hPa WNW 12.1mph /  19.5km/h 17mph /  27.4km/h 81% 0in /  0.0mm 0 W/m2
22:14 40.3 °F /  4.6 °C 34.9 °F /  1.6 °C 30in /  1015.9hPa WNW 10.1mph /  16.3km/h 18mph /  29km/h 81% 0in /  0.0mm 0 W/m2
22:19 40.3 °F /  4.6 °C 34.9 °F /  1.6 °C 30in /  1015.9hPa West 2.9mph /  4.7km/h 13mph /  20.9km/h 81% 0in /  0.0mm 0 W/m2
22:24 40.3 °F /  4.6 °C 34.9 °F /  1.6 °C 30in /  1015.9hPa West 13mph /  20.9km/h 14mph /  22.5km/h 81% 0in /  0.0mm 0 W/m2
22:29 40.5 °F /  4.7 °C 35.1 °F /  1.7 °C 30in /  1015.9hPa WNW 8.9mph /  14.3km/h 10mph /  16.1km/h 81% 0in /  0.0mm 0 W/m2
22:34 40.5 °F /  4.7 °C 35.1 °F /  1.7 °C 30in /  1015.9hPa WSW 14mph /  22.5km/h 14mph /  22.5km/h 81% 0in /  0.0mm 0 W/m2
22:39 40.3 °F /  4.6 °C 34.9 °F /  1.6 °C 30in /  1015.9hPa WNW 2.9mph /  4.7km/h 9mph /  14.5km/h 81% 0in /  0.0mm 0 W/m2
22:44 40.3 °F /  4.6 °C 34.9 °F /  1.6 °C 30in /  1015.9hPa WSW 8.9mph /  14.3km/h 12mph /  19.3km/h 81% 0in /  0.0mm 0 W/m2
22:49 40.3 °F /  4.6 °C 34.9 °F /  1.6 °C 30in /  1015.9hPa West 4mph /  6.4km/h 10mph /  16.1km/h 81% 0in /  0.0mm 0 W/m2
22:54 40.3 °F /  4.6 °C 34.9 °F /  1.6 °C 30in /  1016.3hPa WNW 6.9mph /  11.1km/h 12mph /  19.3km/h 81% 0in /  0.0mm 0 W/m2
22:59 40.1 °F /  4.5 °C 34.7 °F /  1.5 °C 30in /  1015.9hPa WNW 4.9mph /  7.9km/h 10mph /  16.1km/h 81% 0in /  0.0mm 0 W/m2
23:04 39.9 °F /  4.4 °C 34.5 °F /  1.4 °C 30in /  1016.3hPa West 6mph /  9.7km/h 11mph /  17.7km/h 81% 0in /  0.0mm 0 W/m2
23:09 39.7 °F /  4.3 °C 34.3 °F /  1.3 °C 30in /  1016.3hPa SW 4.9mph /  7.9km/h 8mph /  12.9km/h 81% 0in /  0.0mm 0 W/m2
23:14 39.6 °F /  4.2 °C 34.2 °F /  1.2 °C 30in /  1015.9hPa WNW 4.9mph /  7.9km/h 10mph /  16.1km/h 81% 0in /  0.0mm 0 W/m2
23:19 39.2 °F /  4 °C 34.2 °F /  1.2 °C 30in /  1015.9hPa WNW 2.9mph /  4.7km/h 13mph /  20.9km/h 82% 0in /  0.0mm 0 W/m2
23:24 39 °F /  3.9 °C 34 °F /  1.1 °C 30in /  1015.9hPa NW 2.9mph /  4.7km/h 14mph /  22.5km/h 82% 0in /  0.0mm 0 W/m2
23:29 38.8 °F /  3.8 °C 34.2 °F /  1.2 °C 30in /  1015.9hPa WNW 2.9mph /  4.7km/h 10mph /  16.1km/h 83% 0in /  0.0mm 0 W/m2
23:34 38.7 °F /  3.7 °C 34 °F /  1.1 °C 30in /  1015.9hPa North 2.9mph /  4.7km/h 11mph /  17.7km/h 83% 0in /  0.0mm 0 W/m2
23:39 38.7 °F /  3.7 °C 34 °F /  1.1 °C 30in /  1015.9hPa West 2mph /  3.2km/h 6mph /  9.7km/h 83% 0in /  0.0mm 0 W/m2
23:44 38.5 °F /  3.6 °C 33.8 °F /  1 °C 30in /  1015.9hPa WSW 4mph /  6.4km/h 11mph /  17.7km/h 83% 0in /  0.0mm 0 W/m2
23:49 38.5 °F /  3.6 °C 34.2 °F /  1.2 °C 30in /  1015.9hPa SW 2mph /  3.2km/h 5mph /  8km/h 84% 0in /  0.0mm 0 W/m2
23:54 38.3 °F /  3.5 °C 34 °F /  1.1 °C 30in /  1015.9hPa NW 4mph /  6.4km/h 10mph /  16.1km/h 84% 0in /  0.0mm 0 W/m2
23:59 38.3 °F /  3.5 °C 34 °F /  1.1 °C 30in /  1015.9hPa South 2.9mph /  4.7km/h 4mph /  6.4km/h 84% 0in /  0.0mm 0 W/m2
Juneau County Weather
Compliments of Weather Underground - 4 mb